createdAt,value
2023-04-25T00:06:33.487Z,6.50
2023-04-25T00:11:37.076Z,6.87
2023-04-25T00:16:40.967Z,6.20
2023-04-25T00:21:43.489Z,6.30
2023-04-25T00:26:45.988Z,6.30
2023-04-25T00:31:49.879Z,5.57
2023-04-25T00:36:55.296Z,6.05
2023-04-25T00:41:59.080Z,5.17
2023-04-25T00:47:03.783Z,4.50
2023-04-25T00:52:06.678Z,5.17
2023-04-25T00:57:09.487Z,4.83
2023-04-25T01:02:14.063Z,4.80
2023-04-25T01:07:16.670Z,5.47
2023-04-25T01:12:19.365Z,4.90
2023-04-25T01:17:23.504Z,4.95
2023-04-25T01:22:27.607Z,4.27
2023-04-25T01:27:30.894Z,3.30
2023-04-25T01:32:34.899Z,3.80
2023-04-25T01:37:39.258Z,4.33
2023-04-25T01:42:44.337Z,4.33
2023-04-25T01:48:00.666Z,4.00
2023-04-25T01:53:05.297Z,4.13
2023-04-25T01:58:08.136Z,3.70
2023-04-25T02:03:31.443Z,3.58
2023-04-25T02:08:36.394Z,3.87
2023-04-25T02:13:39.215Z,4.50
2023-04-25T02:19:11.824Z,4.10
2023-04-25T02:24:15.947Z,4.13
2023-04-25T02:29:18.476Z,4.33
2023-04-25T02:34:21.022Z,4.40
2023-04-25T02:39:25.347Z,4.20
2023-04-25T02:44:30.560Z,4.20
2023-04-25T02:49:33.206Z,4.60
2023-04-25T02:54:37.132Z,4.70
2023-04-25T02:59:39.646Z,3.90
2023-04-25T03:04:42.195Z,4.32
2023-04-25T03:09:46.484Z,4.13
2023-04-25T03:14:48.988Z,3.53
2023-04-25T03:19:54.460Z,3.80
2023-04-25T03:24:58.823Z,3.27
2023-04-25T03:30:01.239Z,4.03
2023-04-25T03:35:04.445Z,3.30
2023-04-25T03:40:10.609Z,3.43
2023-04-25T03:45:33.029Z,3.80
2023-04-25T03:50:36.231Z,3.15
2023-04-25T03:55:43.676Z,3.23
2023-04-25T04:00:46.779Z,3.15
2023-04-25T04:05:49.654Z,2.60
2023-04-25T04:10:53.668Z,3.40
2023-04-25T04:15:59.649Z,3.00
2023-04-25T04:21:02.369Z,3.27
2023-04-25T04:26:13.143Z,4.00
2023-04-25T04:31:23.644Z,4.35
2023-04-25T04:36:26.581Z,3.10
2023-04-25T04:41:33.396Z,2.67
2023-04-25T04:46:46.828Z,2.10
2023-04-25T04:52:06.729Z,2.60
2023-04-25T04:57:23.248Z,2.00
2023-04-25T05:02:39.201Z,1.97
2023-04-25T05:08:00.239Z,2.63
2023-04-25T05:13:23.080Z,3.03
2023-04-25T05:18:54.927Z,2.77
2023-04-25T05:24:09.371Z,2.92
2023-04-25T05:29:13.282Z,2.70
2023-04-25T05:34:36.611Z,3.03
2023-04-25T05:39:42.445Z,4.18
2023-04-25T05:45:11.808Z,2.30
2023-04-25T05:50:37.519Z,14.85
2023-04-25T05:55:50.898Z,5.30
2023-04-25T06:01:00.761Z,2.97
2023-04-25T06:06:08.874Z,4.88
2023-04-25T06:11:13.223Z,5.80
2023-04-25T06:16:17.668Z,4.40
2023-04-25T06:21:21.581Z,4.63
2023-04-25T06:26:27.886Z,3.50
2023-04-25T06:31:33.925Z,4.10
2023-04-25T06:36:39.326Z,3.97
2023-04-25T06:41:45.579Z,2.67
2023-04-25T06:47:29.450Z,3.10
2023-04-25T06:52:33.165Z,3.10
2023-04-25T06:57:38.154Z,3.03
2023-04-25T07:03:03.997Z,2.53
2023-04-25T07:08:11.211Z,3.75
2023-04-25T07:13:14.518Z,10.53
2023-04-25T07:18:29.608Z,5.38
2023-04-25T07:23:34.489Z,3.67
2023-04-25T07:34:39.033Z,2.60
2023-04-25T07:40:18.674Z,2.40
2023-04-25T07:45:36.928Z,2.50
2023-04-25T07:50:51.036Z,2.70
2023-04-25T07:56:00.758Z,2.50
2023-04-25T08:01:23.760Z,2.80
2023-04-25T08:06:38.395Z,2.13
2023-04-25T08:12:22.929Z,2.10
2023-04-25T08:17:34.126Z,2.40
2023-04-25T08:22:44.090Z,2.28
2023-04-25T08:28:22.297Z,2.40
2023-04-25T08:33:28.718Z,2.00
2023-04-25T08:38:55.421Z,1.98
2023-04-25T08:44:01.482Z,2.73
2023-04-25T08:49:06.051Z,5.57
2023-04-25T08:54:34.761Z,1.85
2023-04-25T08:59:43.366Z,1.47
2023-04-25T09:05:01.041Z,2.30
2023-04-25T09:10:14.689Z,5.45
2023-04-25T09:15:20.912Z,4.17
2023-04-25T09:21:00.621Z,2.77
2023-04-25T09:26:15.242Z,3.22
2023-04-25T09:31:30.583Z,2.70
2023-04-25T09:36:44.070Z,2.40
2023-04-25T09:42:03.259Z,2.90
2023-04-25T09:47:12.791Z,1.73
2023-04-25T09:52:17.665Z,2.00
2023-04-25T09:57:58.774Z,1.65
2023-04-25T10:03:03.632Z,2.00
2023-04-25T10:08:35.192Z,1.63
2023-04-25T10:13:47.469Z,1.38
2023-04-25T10:24:24.007Z,1.77
2023-04-25T10:29:29.015Z,2.40
2023-04-25T10:34:46.237Z,2.40
2023-04-25T10:39:49.989Z,2.13
2023-04-25T10:45:07.336Z,2.00
2023-04-25T10:50:11.385Z,2.20
2023-04-25T10:55:14.390Z,3.23
2023-04-25T11:00:27.913Z,2.50
2023-04-25T11:05:54.969Z,2.17
2023-04-25T11:11:02.094Z,2.07
2023-04-25T11:16:13.019Z,2.60
2023-04-25T11:21:20.394Z,2.65
2023-04-25T11:26:37.721Z,2.00
2023-04-25T11:31:45.450Z,2.63
2023-04-25T11:36:49.332Z,1.85
2023-04-25T11:41:52.436Z,1.80
2023-04-25T11:46:57.417Z,1.38
2023-04-25T11:52:02.413Z,1.90
2023-04-25T11:57:05.860Z,2.20
2023-04-25T12:02:09.916Z,1.73
2023-04-25T12:07:14.722Z,1.52
2023-04-25T12:12:35.013Z,2.20
2023-04-25T12:17:47.275Z,1.67
2023-04-25T12:22:51.517Z,1.80
2023-04-25T12:27:54.624Z,1.60
2023-04-25T12:33:00.472Z,1.48
2023-04-25T12:38:05.218Z,1.97
2023-04-25T12:43:07.954Z,2.20
2023-04-25T12:48:14.242Z,1.92
2023-04-25T12:53:24.709Z,1.33
2023-04-25T12:58:31.354Z,11.33
2023-04-25T13:03:36.216Z,8.13
2023-04-25T13:08:45.326Z,5.30
2023-04-25T13:13:51.518Z,2.87
2023-04-25T13:18:55.611Z,2.83
2023-04-25T13:23:58.092Z,2.45
2023-04-25T13:29:00.764Z,1.90
2023-04-25T13:34:04.678Z,2.90
2023-04-25T13:39:07.216Z,3.22
2023-04-25T13:44:09.777Z,1.77
2023-04-25T13:49:14.051Z,2.17
2023-04-25T13:54:16.691Z,1.80
2023-04-25T13:59:21.109Z,2.33
2023-04-25T14:04:24.999Z,2.03
2023-04-25T14:09:27.555Z,1.65
2023-04-25T14:14:29.991Z,1.63
2023-04-25T14:19:33.827Z,1.63
2023-04-25T14:24:36.325Z,2.28
2023-04-25T14:29:38.746Z,1.50
2023-04-25T14:34:42.807Z,1.92
2023-04-25T14:39:46.422Z,2.00
2023-04-25T14:44:49.121Z,1.90
2023-04-25T14:49:53.151Z,1.05
2023-04-25T14:54:55.747Z,1.98
2023-04-25T15:00:00.901Z,2.23
2023-04-25T15:05:08.344Z,2.03
2023-04-25T15:10:11.798Z,1.40
2023-04-25T15:15:26.045Z,1.40
2023-04-25T15:20:31.255Z,1.23
2023-04-25T15:25:33.811Z,3.92
2023-04-25T15:30:36.323Z,2.80
2023-04-25T15:35:40.297Z,1.92
2023-04-25T15:40:43.045Z,1.98
2023-04-25T15:45:45.651Z,3.93
2023-04-25T15:50:49.933Z,3.88
2023-04-25T15:55:52.350Z,1.83
2023-04-25T16:00:54.875Z,1.60
2023-04-25T16:05:58.670Z,1.70
2023-04-25T16:11:01.756Z,1.60
2023-04-25T16:16:04.687Z,1.07
2023-04-25T16:21:08.640Z,0.98
2023-04-25T16:26:11.099Z,1.20
2023-04-25T16:31:19.699Z,1.40
2023-04-25T16:36:24.305Z,2.20
2023-04-25T16:41:26.850Z,1.83
2023-04-25T16:46:29.321Z,3.53
2023-04-25T16:51:33.685Z,3.47
2023-04-25T16:56:39.295Z,2.10
2023-04-25T17:01:41.787Z,2.13
2023-04-25T17:06:45.868Z,1.87
2023-04-25T17:11:48.811Z,6.10
2023-04-25T17:16:51.438Z,7.53
2023-04-25T17:21:55.592Z,12.07
2023-04-25T17:26:58.125Z,7.95
2023-04-25T17:32:00.750Z,5.33
2023-04-25T17:37:04.706Z,5.90
2023-04-25T17:42:07.245Z,5.22
2023-04-25T17:47:10.200Z,5.00
2023-04-25T17:52:14.268Z,4.45
2023-04-25T17:57:16.921Z,4.00
2023-04-25T18:02:19.778Z,3.63
2023-04-25T18:07:24.130Z,3.90
2023-04-25T18:12:28.110Z,3.90
2023-04-25T18:17:30.751Z,3.70
2023-04-25T18:22:34.756Z,4.05
2023-04-25T18:27:37.483Z,3.10
2023-04-25T18:32:40.266Z,4.63
2023-04-25T18:37:44.554Z,3.63
2023-04-25T18:42:46.964Z,4.70
2023-04-25T18:47:49.553Z,4.00
2023-04-25T18:52:53.416Z,3.80
2023-04-25T18:57:56.006Z,3.97
2023-04-25T19:02:58.624Z,4.03
2023-04-25T19:08:02.578Z,3.10
2023-04-25T19:13:05.000Z,3.97
2023-04-25T19:18:10.081Z,4.27
2023-04-25T19:23:14.438Z,4.75
2023-04-25T19:28:16.937Z,5.30
2023-04-25T19:33:19.690Z,5.70
2023-04-25T19:38:23.722Z,6.15
2023-04-25T19:43:26.133Z,5.83
2023-04-25T19:48:28.623Z,7.38
2023-04-25T19:53:32.450Z,6.80
2023-04-25T19:58:34.834Z,8.23
2023-04-25T20:03:37.356Z,8.20
2023-04-25T20:08:41.286Z,6.87
2023-04-25T20:13:43.883Z,5.53
2023-04-25T20:18:49.648Z,3.75
2023-04-25T20:23:53.625Z,7.73
2023-04-25T20:28:56.118Z,7.22
2023-04-25T20:33:58.646Z,7.90
2023-04-25T20:39:02.555Z,6.25
2023-04-25T20:44:04.924Z,5.82
2023-04-25T20:49:07.662Z,5.07
2023-04-25T20:54:11.877Z,4.78
2023-04-25T20:59:14.238Z,4.60
2023-04-25T21:04:16.716Z,4.82
2023-04-25T21:09:20.671Z,4.78
2023-04-25T21:14:23.252Z,3.73
2023-04-25T21:19:28.624Z,4.75
2023-04-25T21:24:32.482Z,5.73
2023-04-25T21:29:37.526Z,4.53
2023-04-25T21:34:39.899Z,4.75
2023-04-25T21:39:44.012Z,4.27
2023-04-25T21:44:46.474Z,4.28
2023-04-25T21:49:48.878Z,4.60
2023-04-25T21:54:52.817Z,4.75
2023-04-25T21:59:55.381Z,4.53
2023-04-25T22:04:57.832Z,4.17
2023-04-25T22:10:01.749Z,4.00
2023-04-25T22:15:05.483Z,4.47
2023-04-25T22:20:10.554Z,4.20
2023-04-25T22:25:14.862Z,4.93
2023-04-25T22:30:17.470Z,4.63
2023-04-25T22:35:19.826Z,4.03
2023-04-25T22:40:24.095Z,4.10
2023-04-25T22:45:26.515Z,3.05
2023-04-25T22:50:31.629Z,3.25
2023-04-25T22:55:35.809Z,4.13
2023-04-25T23:00:38.522Z,3.10
2023-04-25T23:05:41.092Z,4.13
2023-04-25T23:10:44.946Z,3.42
2023-04-25T23:15:47.569Z,3.35
2023-04-25T23:20:49.998Z,2.83
2023-04-25T23:25:57.098Z,2.30
2023-04-25T23:31:06.068Z,2.93
2023-04-25T23:36:16.213Z,3.20
2023-04-25T23:41:20.419Z,3.20
2023-04-25T23:46:22.849Z,3.40
2023-04-25T23:51:25.251Z,3.78
2023-04-25T23:56:29.053Z,3.87
